Latest Weather Observations for Parkes Airport

IDN60801

Issued at 12:32 pm EDT Saturday 25 March 2017 (issued every 30 minutes, with the page automatically refreshed every 10 minutes)

About weather observations | Map of weather stations | Latest weather observations for NSW | Other Formats
Station Details ID: 065068 Name: PARKES AIRPORT AWS Lat: -33.13 Lon: 148.24 Height: 323.3 m
Data from the previous 72 hours. | See also: Recent months at Parkes Airport
Date/Time
EDT
Temp
°C
App
Temp
°C
Dew
Point
°C
Rel
Hum
%
Delta-T
°C
Wind Press
QNH
hPa
Press
MSL
hPa
Rain since
9am
mm
Dir  Spd
km/h
Gust
km/h
Spd
kts
Gust
kts
25/12:30pm 27.0 25.0 18.3 59 5.6 N 26 37 14 20 1014.7 1013.3 0.0
25/12:00pm 26.0 22.7 17.9 61 5.2 N 32 39 17 21 1015.0 1013.7 0.0
25/11:30am 25.1 21.3 17.1 61 5.0 N 33 44 18 24 1015.4 1014.1 0.0
25/11:00am 24.7 22.3 17.4 64 4.6 NNE 26 35 14 19 1015.7 1014.4 0.0
25/10:30am 22.6 20.1 16.2 67 3.9 NNE 24 30 13 16 1016.0 1014.7 0.0
25/10:00am 21.2 18.4 15.3 69 3.5 NE 24 32 13 17 1016.0 1014.7 0.0
25/09:30am 21.0 18.8 16.0 73 3.0 NE 22 32 12 17 1015.9 1014.6 0.0
25/09:00am 20.4 18.0 15.4 73 3.0 NE 22 32 12 17 1016.0 1014.7 4.8
25/08:30am 19.0 18.0 15.7 81 2.0 NE 15 20 8 11 1016.1 1014.8 4.8
25/08:00am 18.1 16.9 15.0 82 1.8 NE 15 19 8 10 1016.0 1014.7 4.8
25/07:30am 17.9 16.6 14.8 82 1.8 NE 15 20 8 11 1015.6 1014.3 4.8
25/07:00am 18.1 16.5 15.0 82 1.8 NE 17 20 9 11 1015.3 1014.0 4.8
25/06:30am 17.3 15.7 14.9 86 1.4 NE 17 24 9 13 1015.0 1013.7 4.8
25/06:00am 17.5 15.4 15.3 87 1.3 NE 20 26 11 14 1015.1 1013.8 4.8
25/05:30am 18.4 16.7 14.7 79 2.2 ENE 17 24 9 13 1015.3 1014.0 4.0
25/05:00am 19.0 17.1 14.3 74 2.8 NE 17 22 9 12 1014.9 1013.6 3.8
25/04:30am 18.8 16.9 14.1 74 2.7 NE 17 22 9 12 1015.0 1013.7 3.8
25/04:00am 18.9 16.4 14.2 74 2.7 NE 20 24 11 13 1015.1 1013.8 3.8
25/03:30am 19.0 15.7 14.1 73 2.9 ENE 24 32 13 17 1015.0 1013.7 3.8
25/03:00am 18.9 16.1 14.2 74 2.7 ENE 22 30 12 16 1015.2 1013.9 3.8
25/02:30am 19.1 16.8 14.1 73 2.9 ENE 19 24 10 13 1015.5 1014.2 3.8
25/02:00am 19.3 16.9 14.3 73 2.9 ENE 20 26 11 14 1015.9 1014.6 3.8
25/01:30am 19.5 17.1 14.3 72 3.1 ENE 20 28 11 15 1016.1 1014.8 3.8
25/01:00am 19.6 16.5 14.4 72 3.1 ENE 24 33 13 18 1016.1 1014.8 3.8
25/12:30am 19.9 17.2 14.7 72 3.1 ENE 22 30 12 16 1016.5 1015.2 3.8
25/12:00am 20.0 17.0 14.8 72 3.1 ENE 24 32 13 17 1016.4 1015.1 3.8
 
Date/Time
EDT
Temp
°C
App
Temp
°C
Dew
Point
°C
Rel
Hum
%
Delta-T
°C
Wind Press
QNH
hPa
Press
MSL
hPa
Rain since
9am
mm
Dir  Spd
km/h
Gust
km/h
Spd
kts
Gust
kts
24/11:30pm 20.0 17.0 14.8 72 3.1 ENE 24 30 13 16 1016.6 1015.3 3.8
24/11:00pm 20.4 17.0 14.7 70 3.4 ENE 26 37 14 20 1016.8 1015.5 3.8
24/10:30pm 20.7 16.9 14.8 69 3.5 ENE 28 37 15 20 1016.8 1015.5 3.8
24/10:00pm 20.8 17.8 14.9 69 3.5 ENE 24 33 13 18 1016.7 1015.4 3.8
24/09:30pm 20.7 18.1 15.0 70 3.4 ENE 22 39 12 21 1016.5 1015.2 3.8
24/09:00pm 21.0 19.4 16.0 73 3.0 ENE 19 24 10 13 1016.4 1015.1 3.8
24/08:30pm 21.2 19.5 16.2 73 3.1 NE 20 28 11 15 1016.5 1015.2 3.8
24/08:00pm 21.5 20.5 16.5 73 3.1 NE 17 20 9 11 1016.2 1014.9 3.8
24/07:30pm 21.9 20.8 16.4 71 3.4 NE 17 20 9 11 1015.9 1014.6 3.8
24/07:00pm 22.7 21.7 16.7 69 3.7 NE 17 22 9 12 1015.6 1014.3 3.8
24/06:30pm 23.6 21.7 16.6 65 4.3 NE 22 33 12 18 1015.4 1014.1 3.8
24/06:00pm 24.5 22.7 17.0 63 4.7 NE 22 30 12 16 1015.5 1014.2 3.8
24/05:30pm 25.1 22.9 16.8 60 5.2 NE 24 33 13 18 1015.3 1014.0 3.8
24/05:00pm 25.2 23.1 17.1 60 5.1 NE 24 32 13 17 1015.2 1013.9 3.8
24/04:30pm 25.1 22.9 16.8 60 5.2 NE 24 32 13 17 1015.4 1014.1 3.8
24/04:00pm 25.7 23.9 17.9 62 5.0 NE 24 33 13 18 1015.4 1014.1 3.8
24/03:30pm 25.0 23.0 17.5 63 4.7 NE 24 32 13 17 1015.6 1014.3 3.8
24/03:00pm 24.4 22.2 16.9 63 4.7 NE 24 32 13 17 1016.1 1014.8 3.8
24/02:30pm 23.2 22.0 17.0 68 3.9 NE 19 22 10 12 1016.5 1015.2 3.8
24/02:00pm 23.0 21.2 17.0 69 3.7 ENE 22 32 12 17 1017.0 1015.7 3.8
24/01:30pm 22.5 20.3 16.8 70 3.5 NE 24 30 13 16 1017.4 1016.0 3.8
24/01:00pm 22.0 20.0 16.5 71 3.4 ENE 22 30 12 16 1017.8 1016.5 3.8
24/12:30pm 21.6 18.4 16.3 72 3.2 ENE 28 41 15 22 1018.0 1016.7 3.8
24/12:00pm 21.4 19.1 16.6 74 2.9 ENE 24 32 13 17 1018.2 1016.9 3.8
24/11:30am 20.9 17.2 16.1 74 2.9 ENE 30 39 16 21 1018.3 1017.0 3.8
24/11:00am 20.7 17.4 17.1 80 2.2 ENE 30 41 16 22 1018.4 1017.1 3.8
24/10:30am 19.3 17.3 16.5 84 1.7 ENE 22 33 12 18 1018.4 1017.1 3.8
24/10:00am 19.0 18.1 16.8 87 1.3 ENE 17 26 9 14 1018.3 1017.0 3.6
24/09:30am 18.5 16.6 16.7 89 1.1 ENE 22 30 12 16 1018.1 1016.8 3.6
24/09:00am 19.3 17.7 16.5 84 1.7 ENE 20 32 11 17 1017.7 1016.4 48.4
24/08:30am 18.8 16.9 16.8 88 1.2 ENE 22 30 12 16 1017.4 1016.0 48.4
24/08:00am 18.5 18.7 16.8 90 1.0 NE 11 15 6 8 1017.3 1015.9 48.4
24/07:30am 18.6 17.7 16.8 89 1.1 NE 17 20 9 11 1016.9 1015.6 48.4
24/07:00am 18.8 17.8 16.6 87 1.3 ENE 17 20 9 11 1016.6 1015.3 47.6
24/06:30am 19.3 17.3 16.5 84 1.7 ENE 22 30 12 16 1016.5 1015.2 47.4
24/06:00am 19.2 18.9 16.4 84 1.7 NE 13 19 7 10 1016.2 1014.9 47.4
24/05:30am 19.4 17.8 16.6 84 1.7 E 20 28 11 15 1016.0 1014.7 47.4
24/05:00am 19.4 17.5 16.8 85 1.6 E 22 30 12 16 1015.8 1014.5 47.2
24/04:30am 19.5 19.1 17.1 86 1.5 ENE 15 19 8 10 1016.0 1014.7 47.2
24/04:00am 19.5 19.5 17.3 87 1.4 ENE 13 15 7 8 1015.9 1014.6 47.2
24/03:30am 19.7 18.0 17.1 85 1.6 ENE 22 28 12 15 1015.8 1014.5 47.2
24/03:00am 19.7 19.8 17.5 87 1.4 ENE 13 19 7 10 1016.4 1015.1 47.2
24/02:30am 19.4 21.4 17.9 91 0.9 NNE 4 11 2 6 1016.2 1014.9 47.2
24/02:00am 19.7 19.5 17.7 88 1.2 ENE 15 20 8 11 1016.1 1014.8 47.2
24/01:30am 19.8 20.2 18.1 90 1.1 ENE 13 19 7 10 1016.4 1015.1 47.2
24/01:00am 20.0 20.2 18.5 91 0.9 E 15 24 8 13 1016.4 1015.1 47.2
24/12:30am 20.0 20.2 18.5 91 0.9 E 15 19 8 10 1016.5 1015.2 47.2
24/12:00am 20.4 20.3 18.7 90 1.1 E 17 22 9 12 1016.7 1015.4 47.2
 
Date/Time
EDT
Temp
°C
App
Temp
°C
Dew
Point
°C
Rel
Hum
%
Delta-T
°C
Wind Press
QNH
hPa
Press
MSL
hPa
Rain since
9am
mm
Dir  Spd
km/h
Gust
km/h
Spd
kts
Gust
kts
23/11:30pm 20.9 22.7 19.6 92 0.8 S 9 15 5 8 1016.9 1015.6 47.0
23/11:00pm 20.9 23.2 19.9 94 0.6 E 7 9 4 5 1016.7 1015.4 47.0
23/10:30pm 20.8 23.1 19.8 94 0.6 ESE 7 9 4 5 1016.7 1015.4 47.0
23/10:00pm 21.0 24.3 20.0 94 0.6 ESE 2 7 1 4 1016.6 1015.3 47.0
23/09:30pm 21.1 22.8 20.1 94 0.6 E 11 15 6 8 1016.4 1015.1 47.0
23/09:00pm 21.3 22.6 20.1 93 0.8 ESE 13 19 7 10 1016.1 1014.8 46.4
23/08:30pm 21.6 22.9 20.1 91 1.0 ENE 13 19 7 10 1014.9 1013.6 44.8
23/08:00pm 22.3 21.4 19.8 86 1.6 E 24 32 13 17 1014.1 1012.7 43.4
23/07:30pm 24.1 24.9 19.8 77 2.8 ENE 15 20 8 11 1014.1 1012.7 41.0
23/07:00pm 24.4 24.3 19.9 76 2.9 ENE 20 24 11 13 1013.8 1012.5 41.0
23/06:30pm 25.1 25.1 19.7 72 3.5 ENE 19 24 10 13 1013.6 1012.3 41.0
23/06:00pm 26.4 26.4 19.8 67 4.3 E 19 24 10 13 1013.8 1012.5 41.0
23/05:30pm 26.9 27.0 20.3 67 4.4 ENE 20 28 11 15 1013.8 1012.5 41.0
23/05:00pm 26.5 26.4 19.6 66 4.5 ENE 19 24 10 13 1013.7 1012.4 41.0
23/04:30pm 26.2 27.5 19.3 65 4.5 NNE 11 17 6 9 1014.7 1013.3 41.0
23/04:00pm 26.4 26.2 19.8 67 4.3 ENE 20 26 11 14 1014.6 1013.2 41.0
23/03:30pm 27.3 27.5 20.6 67 4.5 NE 20 28 11 15 1014.8 1013.5 41.0
23/03:00pm 27.2 27.3 20.3 66 4.6 NNE 20 28 11 15 1015.0 1013.7 41.0
23/02:30pm 26.4 26.1 19.5 66 4.5 NE 20 26 11 14 1015.5 1014.2 41.0
23/02:00pm 25.5 26.0 20.1 72 3.6 E 17 20 9 11 1016.0 1014.7 41.0
23/01:30pm 24.8 25.6 20.7 78 2.7 E 17 19 9 10 1016.5 1015.2 41.0
23/01:00pm 22.8 22.9 19.2 80 2.3 E 17 20 9 11 1017.0 1015.7 41.0
23/12:30pm 22.1 23.3 19.8 87 1.5 E 13 17 7 9 1017.5 1016.2 41.0
23/12:00pm 21.1 21.8 19.7 92 0.9 E 15 19 8 10 1017.7 1016.4 41.0
23/11:30am 19.9 20.4 19.2 96 0.4 NE 15 19 8 10 1017.7 1016.4 41.0
23/11:00am 19.0 19.5 18.3 96 0.4 ENE 13 20 7 11 1018.5 1017.2 41.0
23/10:30am 19.2 17.5 18.0 93 0.7 SE 24 44 13 24 1018.0 1016.7 30.2
23/10:00am 19.4 18.9 18.6 95 0.5 NE 19 24 10 13 1017.3 1015.9 26.4
23/09:30am 19.6 17.7 19.3 98 0.2 ENE 28 33 15 18 1017.5 1016.2 25.8
23/09:00am 19.6 20.8 19.1 97 0.3 S 11 17 6 9 1017.6 1016.3 19.4
23/08:30am 19.9 22.5 19.2 96 0.4 W 4 7 2 4 1017.0 1015.7 9.0
23/08:00am 19.6 22.8 18.8 95 0.5 CALM 0 0 0 0 1016.5 1015.2 8.0
23/07:30am 19.5 22.6 18.7 95 0.5 CALM 0 0 0 0 1016.6 1015.3 7.8
23/07:00am 19.4 20.3 18.4 94 0.6 E 11 15 6 8 1016.1 1014.8 7.8
23/06:30am 19.5 20.4 18.3 93 0.8 WSW 11 19 6 10 1016.7 1015.4 7.8
23/06:00am 19.5 20.4 18.3 93 0.8 SW 11 15 6 8 1015.9 1014.6 7.8
23/05:30am 19.9 21.4 18.0 89 1.2 E 7 9 4 5 1015.1 1013.8 7.8
23/05:00am 20.1 21.2 17.9 87 1.4 ENE 9 13 5 7 1014.7 1013.3 7.8
23/04:30am 19.8 20.1 17.9 89 1.2 E 13 17 7 9 1014.5 1013.1 7.8
23/04:00am 19.5 19.8 18.0 91 0.9 ENE 13 13 7 7 1014.6 1013.2 7.8
23/03:30am 19.2 21.4 17.5 90 1.1 N 2 7 1 4 1014.7 1013.3 7.8
23/03:00am 18.7 19.3 16.9 89 1.1 N 9 9 5 5 1014.9 1013.6 7.8
23/02:30am 19.2 19.4 16.8 86 1.5 NE 11 13 6 7 1015.1 1013.8 7.8
23/02:00am 19.9 19.9 17.3 85 1.6 ENE 13 13 7 7 1015.1 1013.8 7.6
23/01:30am 20.2 21.5 17.6 85 1.6 N 7 11 4 6 1015.3 1014.0 7.6
23/01:00am 20.3 19.5 17.9 86 1.5 ENE 19 22 10 12 1014.4 1013.0 7.6
23/12:30am 19.4 20.3 17.5 89 1.2 NNE 9 13 5 7 1014.9 1013.6 7.6
23/12:00am 19.8 19.8 18.1 90 1.1 NNW 15 17 8 9 1014.6 1013.2 7.6
 
Date/Time
EDT
Temp
°C
App
Temp
°C
Dew
Point
°C
Rel
Hum
%
Delta-T
°C
Wind Press
QNH
hPa
Press
MSL
hPa
Rain since
9am
mm
Dir  Spd
km/h
Gust
km/h
Spd
kts
Gust
kts
22/11:30pm 19.8 20.6 18.1 90 1.1 NE 11 17 6 9 1014.4 1013.0 7.6
22/11:00pm 20.4 20.1 18.2 87 1.4 ENE 17 22 9 12 1014.6 1013.2 7.6
22/10:30pm 20.1 17.4 18.4 90 1.1 ENE 30 37 16 20 1014.4 1013.0 7.6
22/10:00pm 19.9 18.8 18.7 93 0.8 ESE 22 28 12 15 1015.2 1013.9 7.4
22/09:30pm 20.0 20.8 19.0 94 0.6 E 13 15 7 8 1015.9 1014.6 6.6
22/09:00pm 20.5 22.4 18.6 89 1.2 SSW 6 9 3 5 1016.0 1014.7 5.4
22/08:30pm 21.1 20.5 18.5 85 1.6 WNW 19 26 10 14 1016.0 1014.7 5.0
22/08:00pm 20.1 22.3 19.1 94 0.6 NNW 6 30 3 16 1014.8 1013.5 5.0
22/07:30pm 20.2 23.0 18.9 92 0.8 S 2 9 1 5 1013.2 1011.9 5.0
22/07:00pm 20.6 22.6 19.1 91 1.0 SW 7 9 4 5 1013.1 1011.8 5.0
22/06:30pm 20.5 21.9 17.7 84 1.7 ENE 7 11 4 6 1012.9 1011.6 5.0
22/06:00pm 20.0 18.5 16.8 82 2.0 ENE 20 26 11 14 1011.7 1010.3 5.0
22/05:30pm 18.5 16.8 17.2 92 0.8 N 22 30 12 16 1013.2 1011.9 5.0
22/05:00pm 19.0 15.4 17.1 89 1.2 S 32 46 17 25 1013.1 1011.8 4.8
22/04:56pm 18.4 13.7 16.9 91 0.9 S 37 56 20 30 1013.4 1012.1 4.6
22/04:50pm 18.0 11.6 15.8 87 1.3 SSW 44 61 24 33 1013.5 1012.2 3.8
22/04:40pm 22.3 19.7 17.7 75 2.9 SSW 28 54 15 29 1012.8 1011.5 0.2
22/04:36pm 24.0 24.3 19.7 77 2.8 SSE 17 44 9 24 1012.9 1011.6 0.0
22/04:30pm 25.5 26.6 19.6 70 3.9 ESE 13 19 7 10 1012.1 1010.8 0.0
22/04:00pm 24.6 22.6 19.9 75 3.1 SE 30 35 16 19 1012.3 1011.0 0.0
22/03:30pm 25.4 24.3 17.8 62 4.8 WSW 20 39 11 21 1012.5 1011.2 0.0
22/03:00pm 30.3 31.5 21.4 59 6.0 NW 17 26 9 14 1012.6 1011.3 0.0
22/02:30pm 29.4 30.3 21.9 64 5.1 NNW 20 26 11 14 1012.9 1011.6 0.0
22/02:00pm 27.7 29.6 21.3 68 4.3 NW 13 19 7 10 1013.3 1012.0 0.0
22/01:30pm 28.0 29.2 21.5 67 4.4 NNW 17 22 9 12 1013.7 1012.4 0.0
22/01:00pm 27.8 28.8 21.1 67 4.5 NW 17 24 9 13 1014.1 1012.7 0.0

Other Formats:

Comma delimited format used in spreadsheet applications
http://www.bom.gov.au/fwo/IDN60801/IDN60801.95717.axf

JavaScript Object Notation format (JSON) in row-major order
http://www.bom.gov.au/fwo/IDN60801/IDN60801.95717.json